sensor_id;sensor_type;location;lat;lon;timestamp;temperature;humidity
45012;DHT22;63444;48.148;11.542;2023-12-20T00:00:58;8.10;92.10
45012;DHT22;63444;48.148;11.542;2023-12-20T00:03:24;8.10;92.10
45012;DHT22;63444;48.148;11.542;2023-12-20T00:05:50;8.00;92.20
45012;DHT22;63444;48.148;11.542;2023-12-20T00:08:16;8.10;92.30
45012;DHT22;63444;48.148;11.542;2023-12-20T00:10:42;8.00;92.40
45012;DHT22;63444;48.148;11.542;2023-12-20T00:13:08;8.10;92.50
45012;DHT22;63444;48.148;11.542;2023-12-20T00:15:34;8.10;92.60
45012;DHT22;63444;48.148;11.542;2023-12-20T00:18:00;8.00;92.80
45012;DHT22;63444;48.148;11.542;2023-12-20T00:20:26;8.10;93.00
45012;DHT22;63444;48.148;11.542;2023-12-20T00:22:53;7.90;93.30
45012;DHT22;63444;48.148;11.542;2023-12-20T00:25:19;7.80;93.40
45012;DHT22;63444;48.148;11.542;2023-12-20T00:27:44;8.00;93.60
45012;DHT22;63444;48.148;11.542;2023-12-20T00:30:10;8.10;93.70
45012;DHT22;63444;48.148;11.542;2023-12-20T00:32:36;8.00;93.70
45012;DHT22;63444;48.148;11.542;2023-12-20T00:35:02;8.10;93.60
45012;DHT22;63444;48.148;11.542;2023-12-20T00:37:27;8.10;93.50
45012;DHT22;63444;48.148;11.542;2023-12-20T00:39:53;8.10;93.50
45012;DHT22;63444;48.148;11.542;2023-12-20T00:42:18;8.10;93.50
45012;DHT22;63444;48.148;11.542;2023-12-20T00:44:44;8.10;93.70
45012;DHT22;63444;48.148;11.542;2023-12-20T00:47:10;8.10;93.50
45012;DHT22;63444;48.148;11.542;2023-12-20T00:49:36;8.20;93.40
45012;DHT22;63444;48.148;11.542;2023-12-20T00:52:01;8.20;93.10
45012;DHT22;63444;48.148;11.542;2023-12-20T00:54:27;8.20;92.80
45012;DHT22;63444;48.148;11.542;2023-12-20T00:56:52;8.10;92.30
45012;DHT22;63444;48.148;11.542;2023-12-20T00:59:18;8.20;92.10
45012;DHT22;63444;48.148;11.542;2023-12-20T01:01:44;8.20;91.80
45012;DHT22;63444;48.148;11.542;2023-12-20T01:04:10;8.20;91.80
45012;DHT22;63444;48.148;11.542;2023-12-20T01:06:35;8.20;91.60
45012;DHT22;63444;48.148;11.542;2023-12-20T01:09:01;8.20;91.40
45012;DHT22;63444;48.148;11.542;2023-12-20T01:11:28;8.20;91.40
45012;DHT22;63444;48.148;11.542;2023-12-20T01:13:53;8.10;91.30
45012;DHT22;63444;48.148;11.542;2023-12-20T01:16:19;8.20;91.60
45012;DHT22;63444;48.148;11.542;2023-12-20T01:18:45;8.20;91.60
45012;DHT22;63444;48.148;11.542;2023-12-20T01:21:10;8.20;91.40
45012;DHT22;63444;48.148;11.542;2023-12-20T01:23:36;8.20;91.60
45012;DHT22;63444;48.148;11.542;2023-12-20T01:26:01;8.20;91.60
45012;DHT22;63444;48.148;11.542;2023-12-20T01:28:28;8.10;91.70
45012;DHT22;63444;48.148;11.542;2023-12-20T01:30:53;8.20;91.90
45012;DHT22;63444;48.148;11.542;2023-12-20T01:33:19;8.20;92.00
45012;DHT22;63444;48.148;11.542;2023-12-20T01:35:45;8.20;92.10
45012;DHT22;63444;48.148;11.542;2023-12-20T01:38:10;8.20;92.30
45012;DHT22;63444;48.148;11.542;2023-12-20T01:40:36;8.20;92.40
45012;DHT22;63444;48.148;11.542;2023-12-20T01:43:10;8.20;92.50
45012;DHT22;63444;48.148;11.542;2023-12-20T01:45:38;8.20;92.60
45012;DHT22;63444;48.148;11.542;2023-12-20T01:48:05;8.30;92.80
45012;DHT22;63444;48.148;11.542;2023-12-20T01:50:31;8.20;92.80
45012;DHT22;63444;48.148;11.542;2023-12-20T01:53:01;8.20;92.80
45012;DHT22;63444;48.148;11.542;2023-12-20T01:55:29;8.20;92.80
45012;DHT22;63444;48.148;11.542;2023-12-20T01:57:57;8.20;92.90
45012;DHT22;63444;48.148;11.542;2023-12-20T02:00:24;8.20;92.80
45012;DHT22;63444;48.148;11.542;2023-12-20T02:02:53;8.30;92.90
45012;DHT22;63444;48.148;11.542;2023-12-20T02:05:19;8.20;92.90
45012;DHT22;63444;48.148;11.542;2023-12-20T02:07:45;8.20;92.90
45012;DHT22;63444;48.148;11.542;2023-12-20T02:10:11;8.30;92.80
45012;DHT22;63444;48.148;11.542;2023-12-20T02:12:36;8.30;92.90
45012;DHT22;63444;48.148;11.542;2023-12-20T02:15:03;8.20;92.90
45012;DHT22;63444;48.148;11.542;2023-12-20T02:17:30;8.20;92.80
45012;DHT22;63444;48.148;11.542;2023-12-20T02:19:56;8.20;92.80
45012;DHT22;63444;48.148;11.542;2023-12-20T02:22:22;8.30;92.90
45012;DHT22;63444;48.148;11.542;2023-12-20T02:24:47;8.30;92.80
45012;DHT22;63444;48.148;11.542;2023-12-20T02:27:15;8.30;92.90
45012;DHT22;63444;48.148;11.542;2023-12-20T02:29:41;8.30;93.00
45012;DHT22;63444;48.148;11.542;2023-12-20T02:32:07;8.30;93.10
45012;DHT22;63444;48.148;11.542;2023-12-20T02:34:33;8.30;93.30
45012;DHT22;63444;48.148;11.542;2023-12-20T02:36:58;8.30;93.60
45012;DHT22;63444;48.148;11.542;2023-12-20T02:39:24;8.30;93.90
45012;DHT22;63444;48.148;11.542;2023-12-20T02:41:49;8.30;94.10
45012;DHT22;63444;48.148;11.542;2023-12-20T02:44:15;8.30;94.30
45012;DHT22;63444;48.148;11.542;2023-12-20T02:46:41;8.30;94.40
45012;DHT22;63444;48.148;11.542;2023-12-20T02:49:07;8.30;94.50
45012;DHT22;63444;48.148;11.542;2023-12-20T02:51:32;8.30;94.60
45012;DHT22;63444;48.148;11.542;2023-12-20T02:53:58;8.30;94.70
45012;DHT22;63444;48.148;11.542;2023-12-20T02:56:23;8.30;94.80
45012;DHT22;63444;48.148;11.542;2023-12-20T02:58:49;8.30;95.00
45012;DHT22;63444;48.148;11.542;2023-12-20T03:01:15;8.30;95.10
45012;DHT22;63444;48.148;11.542;2023-12-20T03:03:40;8.40;95.30
45012;DHT22;63444;48.148;11.542;2023-12-20T03:06:06;8.30;95.30
45012;DHT22;63444;48.148;11.542;2023-12-20T03:08:31;8.30;95.40
45012;DHT22;63444;48.148;11.542;2023-12-20T03:11:01;8.40;95.60
45012;DHT22;63444;48.148;11.542;2023-12-20T03:13:27;8.40;95.80
45012;DHT22;63444;48.148;11.542;2023-12-20T03:15:53;8.40;96.00
45012;DHT22;63444;48.148;11.542;2023-12-20T03:18:18;8.40;96.20
45012;DHT22;63444;48.148;11.542;2023-12-20T03:20:44;8.40;96.40
45012;DHT22;63444;48.148;11.542;2023-12-20T03:23:09;8.40;96.70
45012;DHT22;63444;48.148;11.542;2023-12-20T03:25:35;8.40;96.80
45012;DHT22;63444;48.148;11.542;2023-12-20T03:28:01;8.40;97.00
45012;DHT22;63444;48.148;11.542;2023-12-20T03:30:26;8.40;97.20
45012;DHT22;63444;48.148;11.542;2023-12-20T03:32:52;8.40;97.30
45012;DHT22;63444;48.148;11.542;2023-12-20T03:35:18;8.40;97.50
45012;DHT22;63444;48.148;11.542;2023-12-20T03:37:43;8.50;97.70
45012;DHT22;63444;48.148;11.542;2023-12-20T03:40:09;8.40;98.20
45012;DHT22;63444;48.148;11.542;2023-12-20T03:42:35;8.40;98.30
45012;DHT22;63444;48.148;11.542;2023-12-20T03:45:01;8.40;98.60
45012;DHT22;63444;48.148;11.542;2023-12-20T03:47:26;8.40;99.00
45012;DHT22;63444;48.148;11.542;2023-12-20T03:49:53;8.40;99.20
45012;DHT22;63444;48.148;11.542;2023-12-20T03:52:18;8.40;99.60
45012;DHT22;63444;48.148;11.542;2023-12-20T03:54:44;8.30;99.90
45012;DHT22;63444;48.148;11.542;2023-12-20T03:57:09;8.30;99.90
45012;DHT22;63444;48.148;11.542;2023-12-20T03:59:36;8.30;99.90
45012;DHT22;63444;48.148;11.542;2023-12-20T04:02:02;8.20;99.90
45012;DHT22;63444;48.148;11.542;2023-12-20T04:04:28;8.20;99.90
45012;DHT22;63444;48.148;11.542;2023-12-20T04:06:54;8.00;99.90
45012;DHT22;63444;48.148;11.542;2023-12-20T04:09:19;8.00;99.90
45012;DHT22;63444;48.148;11.542;2023-12-20T04:11:45;7.90;99.90
45012;DHT22;63444;48.148;11.542;2023-12-20T04:14:11;7.90;99.90
45012;DHT22;63444;48.148;11.542;2023-12-20T04:16:36;7.90;99.90
45012;DHT22;63444;48.148;11.542;2023-12-20T04:19:02;7.90;99.90
45012;DHT22;63444;48.148;11.542;2023-12-20T04:21:28;7.90;99.90
45012;DHT22;63444;48.148;11.542;2023-12-20T04:23:53;8.00;99.90
45012;DHT22;63444;48.148;11.542;2023-12-20T04:26:19;7.90;99.90
45012;DHT22;63444;48.148;11.542;2023-12-20T04:28:45;7.90;99.90
45012;DHT22;63444;48.148;11.542;2023-12-20T04:31:10;7.90;99.90
45012;DHT22;63444;48.148;11.542;2023-12-20T04:33:36;7.80;99.90
45012;DHT22;63444;48.148;11.542;2023-12-20T04:36:01;7.80;99.90
45012;DHT22;63444;48.148;11.542;2023-12-20T04:38:27;7.80;99.90
45012;DHT22;63444;48.148;11.542;2023-12-20T04:40:53;7.80;99.90
45012;DHT22;63444;48.148;11.542;2023-12-20T04:43:18;7.80;99.90
45012;DHT22;63444;48.148;11.542;2023-12-20T04:45:44;7.70;99.90
45012;DHT22;63444;48.148;11.542;2023-12-20T04:48:09;7.70;99.90
45012;DHT22;63444;48.148;11.542;2023-12-20T04:50:35;7.60;99.90
45012;DHT22;63444;48.148;11.542;2023-12-20T04:53:01;7.60;99.90
45012;DHT22;63444;48.148;11.542;2023-12-20T04:55:26;7.60;99.90
45012;DHT22;63444;48.148;11.542;2023-12-20T04:57:52;7.40;99.90
45012;DHT22;63444;48.148;11.542;2023-12-20T05:00:18;7.40;99.90
45012;DHT22;63444;48.148;11.542;2023-12-20T05:02:43;7.50;99.90
45012;DHT22;63444;48.148;11.542;2023-12-20T05:05:09;7.40;99.90
45012;DHT22;63444;48.148;11.542;2023-12-20T05:07:35;7.30;99.90
45012;DHT22;63444;48.148;11.542;2023-12-20T05:10:00;7.20;99.90
45012;DHT22;63444;48.148;11.542;2023-12-20T05:12:26;7.20;99.90
45012;DHT22;63444;48.148;11.542;2023-12-20T05:14:52;7.20;99.90
45012;DHT22;63444;48.148;11.542;2023-12-20T05:17:18;7.20;99.90
45012;DHT22;63444;48.148;11.542;2023-12-20T05:19:45;7.20;99.90
45012;DHT22;63444;48.148;11.542;2023-12-20T05:22:11;7.30;99.90
45012;DHT22;63444;48.148;11.542;2023-12-20T05:24:37;7.20;99.90
45012;DHT22;63444;48.148;11.542;2023-12-20T05:27:03;7.20;99.90
45012;DHT22;63444;48.148;11.542;2023-12-20T05:29:28;7.30;99.90
45012;DHT22;63444;48.148;11.542;2023-12-20T05:31:54;7.20;99.90
45012;DHT22;63444;48.148;11.542;2023-12-20T05:34:19;7.20;99.90
45012;DHT22;63444;48.148;11.542;2023-12-20T05:36:45;7.20;99.90
45012;DHT22;63444;48.148;11.542;2023-12-20T05:39:11;7.20;99.90
45012;DHT22;63444;48.148;11.542;2023-12-20T05:41:37;7.20;99.90
45012;DHT22;63444;48.148;11.542;2023-12-20T05:44:03;7.10;99.90
45012;DHT22;63444;48.148;11.542;2023-12-20T05:46:28;7.10;99.90
45012;DHT22;63444;48.148;11.542;2023-12-20T05:48:54;7.10;99.90
45012;DHT22;63444;48.148;11.542;2023-12-20T05:51:20;7.10;99.90
45012;DHT22;63444;48.148;11.542;2023-12-20T05:53:45;7.10;99.90
45012;DHT22;63444;48.148;11.542;2023-12-20T05:56:11;6.90;99.90
45012;DHT22;63444;48.148;11.542;2023-12-20T05:58:38;6.90;99.90
45012;DHT22;63444;48.148;11.542;2023-12-20T06:01:05;6.80;99.90
45012;DHT22;63444;48.148;11.542;2023-12-20T06:03:31;6.80;99.90
45012;DHT22;63444;48.148;11.542;2023-12-20T06:05:57;6.70;99.90
45012;DHT22;63444;48.148;11.542;2023-12-20T06:08:22;6.70;99.90
45012;DHT22;63444;48.148;11.542;2023-12-20T06:10:49;6.60;99.90
45012;DHT22;63444;48.148;11.542;2023-12-20T06:13:14;6.60;99.90
45012;DHT22;63444;48.148;11.542;2023-12-20T06:15:40;6.60;99.90
45012;DHT22;63444;48.148;11.542;2023-12-20T06:18:06;6.70;99.90
45012;DHT22;63444;48.148;11.542;2023-12-20T06:20:35;6.70;99.90
45012;DHT22;63444;48.148;11.542;2023-12-20T06:23:01;6.70;99.90
45012;DHT22;63444;48.148;11.542;2023-12-20T06:25:27;6.80;99.90
45012;DHT22;63444;48.148;11.542;2023-12-20T06:27:52;6.80;99.90
45012;DHT22;63444;48.148;11.542;2023-12-20T06:30:18;6.80;99.90
45012;DHT22;63444;48.148;11.542;2023-12-20T06:32:44;6.70;99.90
45012;DHT22;63444;48.148;11.542;2023-12-20T06:35:12;6.70;99.90
45012;DHT22;63444;48.148;11.542;2023-12-20T06:37:37;6.70;99.90
45012;DHT22;63444;48.148;11.542;2023-12-20T06:40:09;6.70;99.90
45012;DHT22;63444;48.148;11.542;2023-12-20T06:42:35;6.70;99.90
45012;DHT22;63444;48.148;11.542;2023-12-20T06:45:00;6.60;99.90
45012;DHT22;63444;48.148;11.542;2023-12-20T06:47:26;6.60;99.90
45012;DHT22;63444;48.148;11.542;2023-12-20T06:49:52;6.50;99.90
45012;DHT22;63444;48.148;11.542;2023-12-20T06:52:17;6.40;99.90
45012;DHT22;63444;48.148;11.542;2023-12-20T06:54:43;6.50;99.90
45012;DHT22;63444;48.148;11.542;2023-12-20T06:57:09;6.50;99.90
45012;DHT22;63444;48.148;11.542;2023-12-20T06:59:41;6.60;99.90
45012;DHT22;63444;48.148;11.542;2023-12-20T07:02:08;6.50;99.90
45012;DHT22;63444;48.148;11.542;2023-12-20T07:04:34;6.50;99.90
45012;DHT22;63444;48.148;11.542;2023-12-20T07:07:00;6.50;99.90
45012;DHT22;63444;48.148;11.542;2023-12-20T07:09:26;6.40;99.90
45012;DHT22;63444;48.148;11.542;2023-12-20T07:11:52;6.40;99.90
45012;DHT22;63444;48.148;11.542;2023-12-20T07:14:18;6.40;99.90
45012;DHT22;63444;48.148;11.542;2023-12-20T07:16:44;6.40;99.90
45012;DHT22;63444;48.148;11.542;2023-12-20T07:19:09;6.30;99.90
45012;DHT22;63444;48.148;11.542;2023-12-20T07:21:35;6.30;99.90
45012;DHT22;63444;48.148;11.542;2023-12-20T07:24:01;6.30;99.90
45012;DHT22;63444;48.148;11.542;2023-12-20T07:26:27;6.30;99.90
45012;DHT22;63444;48.148;11.542;2023-12-20T07:28:52;6.30;99.90
45012;DHT22;63444;48.148;11.542;2023-12-20T07:31:18;6.40;99.90
45012;DHT22;63444;48.148;11.542;2023-12-20T07:33:44;6.30;99.90
45012;DHT22;63444;48.148;11.542;2023-12-20T07:36:09;6.30;99.90
45012;DHT22;63444;48.148;11.542;2023-12-20T07:38:35;6.30;99.90
45012;DHT22;63444;48.148;11.542;2023-12-20T07:41:01;6.30;99.90
45012;DHT22;63444;48.148;11.542;2023-12-20T07:43:26;6.30;99.90
45012;DHT22;63444;48.148;11.542;2023-12-20T07:45:52;6.30;99.90
45012;DHT22;63444;48.148;11.542;2023-12-20T07:48:18;6.10;99.90
45012;DHT22;63444;48.148;11.542;2023-12-20T07:50:43;6.20;99.90
45012;DHT22;63444;48.148;11.542;2023-12-20T07:53:09;6.20;99.90
45012;DHT22;63444;48.148;11.542;2023-12-20T07:55:35;6.30;99.90
45012;DHT22;63444;48.148;11.542;2023-12-20T07:58:00;6.30;99.90
45012;DHT22;63444;48.148;11.542;2023-12-20T08:00:27;6.30;99.90
45012;DHT22;63444;48.148;11.542;2023-12-20T08:02:52;6.30;99.90
45012;DHT22;63444;48.148;11.542;2023-12-20T08:05:18;6.20;99.90
45012;DHT22;63444;48.148;11.542;2023-12-20T08:07:44;6.20;99.90
45012;DHT22;63444;48.148;11.542;2023-12-20T08:10:10;6.30;99.90
45012;DHT22;63444;48.148;11.542;2023-12-20T08:12:36;6.30;99.90
45012;DHT22;63444;48.148;11.542;2023-12-20T08:15:02;6.30;99.90
45012;DHT22;63444;48.148;11.542;2023-12-20T08:17:29;6.20;99.90
45012;DHT22;63444;48.148;11.542;2023-12-20T08:19:54;6.20;99.90
45012;DHT22;63444;48.148;11.542;2023-12-20T08:22:20;6.30;99.90
45012;DHT22;63444;48.148;11.542;2023-12-20T08:24:46;6.10;99.90
45012;DHT22;63444;48.148;11.542;2023-12-20T08:27:11;6.10;99.90
45012;DHT22;63444;48.148;11.542;2023-12-20T08:29:37;6.10;99.90
45012;DHT22;63444;48.148;11.542;2023-12-20T08:32:03;6.10;99.90
45012;DHT22;63444;48.148;11.542;2023-12-20T08:34:30;6.20;99.90
45012;DHT22;63444;48.148;11.542;2023-12-20T08:36:55;6.20;99.90
45012;DHT22;63444;48.148;11.542;2023-12-20T08:39:27;6.30;99.90
45012;DHT22;63444;48.148;11.542;2023-12-20T08:41:53;6.30;99.90
45012;DHT22;63444;48.148;11.542;2023-12-20T08:44:18;6.30;99.90
45012;DHT22;63444;48.148;11.542;2023-12-20T08:46:44;6.30;99.90
45012;DHT22;63444;48.148;11.542;2023-12-20T08:49:10;6.10;99.90
45012;DHT22;63444;48.148;11.542;2023-12-20T08:51:35;6.40;99.90
45012;DHT22;63444;48.148;11.542;2023-12-20T08:54:01;6.30;99.90
45012;DHT22;63444;48.148;11.542;2023-12-20T08:56:27;6.20;99.90
45012;DHT22;63444;48.148;11.542;2023-12-20T08:58:52;6.30;99.90
45012;DHT22;63444;48.148;11.542;2023-12-20T09:01:18;6.20;99.90
45012;DHT22;63444;48.148;11.542;2023-12-20T09:03:43;6.30;99.90
45012;DHT22;63444;48.148;11.542;2023-12-20T09:06:12;6.30;99.90
45012;DHT22;63444;48.148;11.542;2023-12-20T09:08:41;6.30;99.90
45012;DHT22;63444;48.148;11.542;2023-12-20T09:11:07;6.30;99.90
45012;DHT22;63444;48.148;11.542;2023-12-20T09:13:32;6.30;99.90
45012;DHT22;63444;48.148;11.542;2023-12-20T09:15:58;6.30;99.90
45012;DHT22;63444;48.148;11.542;2023-12-20T09:18:24;6.30;99.90
45012;DHT22;63444;48.148;11.542;2023-12-20T09:20:52;6.40;99.90
45012;DHT22;63444;48.148;11.542;2023-12-20T09:23:18;6.40;99.90
45012;DHT22;63444;48.148;11.542;2023-12-20T09:25:43;6.50;99.90
45012;DHT22;63444;48.148;11.542;2023-12-20T09:28:12;6.50;99.90
45012;DHT22;63444;48.148;11.542;2023-12-20T09:30:37;6.40;99.90
45012;DHT22;63444;48.148;11.542;2023-12-20T09:33:05;6.40;99.90
45012;DHT22;63444;48.148;11.542;2023-12-20T09:35:35;6.30;99.90
45012;DHT22;63444;48.148;11.542;2023-12-20T09:38:01;6.40;99.90
45012;DHT22;63444;48.148;11.542;2023-12-20T09:40:30;6.40;99.90
45012;DHT22;63444;48.148;11.542;2023-12-20T09:43:02;6.40;99.90
45012;DHT22;63444;48.148;11.542;2023-12-20T09:45:29;6.30;99.90
45012;DHT22;63444;48.148;11.542;2023-12-20T09:47:56;6.40;99.90
45012;DHT22;63444;48.148;11.542;2023-12-20T09:50:23;6.40;99.90
45012;DHT22;63444;48.148;11.542;2023-12-20T09:52:51;6.40;99.90
45012;DHT22;63444;48.148;11.542;2023-12-20T09:55:22;6.40;99.90
45012;DHT22;63444;48.148;11.542;2023-12-20T09:57:50;6.40;99.90
45012;DHT22;63444;48.148;11.542;2023-12-20T10:00:16;6.40;99.90
45012;DHT22;63444;48.148;11.542;2023-12-20T10:02:50;6.40;99.90
45012;DHT22;63444;48.148;11.542;2023-12-20T10:05:24;6.40;99.90
45012;DHT22;63444;48.148;11.542;2023-12-20T10:07:51;6.40;99.90
45012;DHT22;63444;48.148;11.542;2023-12-20T10:10:20;6.40;99.90
45012;DHT22;63444;48.148;11.542;2023-12-20T10:13:09;6.50;99.90
45012;DHT22;63444;48.148;11.542;2023-12-20T10:15:36;6.50;99.90
45012;DHT22;63444;48.148;11.542;2023-12-20T10:18:02;6.50;99.90
45012;DHT22;63444;48.148;11.542;2023-12-20T10:20:29;6.50;99.90
45012;DHT22;63444;48.148;11.542;2023-12-20T10:22:56;6.70;99.90
45012;DHT22;63444;48.148;11.542;2023-12-20T10:25:22;6.60;99.90
45012;DHT22;63444;48.148;11.542;2023-12-20T10:27:49;6.60;99.90
45012;DHT22;63444;48.148;11.542;2023-12-20T10:30:14;6.70;99.90
45012;DHT22;63444;48.148;11.542;2023-12-20T10:32:40;6.70;99.90
45012;DHT22;63444;48.148;11.542;2023-12-20T10:35:06;6.70;99.90
45012;DHT22;63444;48.148;11.542;2023-12-20T10:37:36;6.80;99.90
45012;DHT22;63444;48.148;11.542;2023-12-20T10:40:03;6.80;99.90
45012;DHT22;63444;48.148;11.542;2023-12-20T10:42:31;6.80;99.90
45012;DHT22;63444;48.148;11.542;2023-12-20T10:44:59;6.90;99.90
45012;DHT22;63444;48.148;11.542;2023-12-20T10:47:25;6.90;99.90
45012;DHT22;63444;48.148;11.542;2023-12-20T10:49:52;6.90;99.90
45012;DHT22;63444;48.148;11.542;2023-12-20T10:52:19;6.90;99.90
45012;DHT22;63444;48.148;11.542;2023-12-20T10:54:47;6.90;99.90
45012;DHT22;63444;48.148;11.542;2023-12-20T10:57:13;6.90;99.90
45012;DHT22;63444;48.148;11.542;2023-12-20T10:59:41;6.90;99.90
45012;DHT22;63444;48.148;11.542;2023-12-20T11:02:08;6.90;99.90
45012;DHT22;63444;48.148;11.542;2023-12-20T11:04:44;6.90;99.90
45012;DHT22;63444;48.148;11.542;2023-12-20T11:07:35;6.90;99.90
45012;DHT22;63444;48.148;11.542;2023-12-20T11:10:25;6.90;99.90
45012;DHT22;63444;48.148;11.542;2023-12-20T11:12:56;6.90;99.90
45012;DHT22;63444;48.148;11.542;2023-12-20T11:15:23;6.90;99.90
45012;DHT22;63444;48.148;11.542;2023-12-20T11:17:57;6.90;99.90
45012;DHT22;63444;48.148;11.542;2023-12-20T11:20:24;6.90;99.90
45012;DHT22;63444;48.148;11.542;2023-12-20T11:23:00;6.70;99.90
45012;DHT22;63444;48.148;11.542;2023-12-20T11:25:26;6.70;99.90
45012;DHT22;63444;48.148;11.542;2023-12-20T11:28:11;6.70;99.90
45012;DHT22;63444;48.148;11.542;2023-12-20T11:30:41;6.70;99.90
45012;DHT22;63444;48.148;11.542;2023-12-20T11:33:08;6.70;99.90
45012;DHT22;63444;48.148;11.542;2023-12-20T11:35:34;6.70;99.90
45012;DHT22;63444;48.148;11.542;2023-12-20T11:38:02;6.80;99.90
45012;DHT22;63444;48.148;11.542;2023-12-20T11:40:27;6.80;99.90
45012;DHT22;63444;48.148;11.542;2023-12-20T11:42:53;6.80;99.90
45012;DHT22;63444;48.148;11.542;2023-12-20T11:45:24;6.80;99.90
45012;DHT22;63444;48.148;11.542;2023-12-20T11:47:51;6.80;99.90
45012;DHT22;63444;48.148;11.542;2023-12-20T11:50:17;6.80;99.90
45012;DHT22;63444;48.148;11.542;2023-12-20T11:52:43;6.90;99.90
45012;DHT22;63444;48.148;11.542;2023-12-20T11:55:09;7.00;99.90
45012;DHT22;63444;48.148;11.542;2023-12-20T11:57:36;6.90;99.90
45012;DHT22;63444;48.148;11.542;2023-12-20T12:00:03;6.90;99.90
45012;DHT22;63444;48.148;11.542;2023-12-20T12:02:30;7.00;99.90
45012;DHT22;63444;48.148;11.542;2023-12-20T12:04:56;7.00;99.90
45012;DHT22;63444;48.148;11.542;2023-12-20T12:07:24;7.00;99.90
45012;DHT22;63444;48.148;11.542;2023-12-20T12:09:49;7.10;99.90
45012;DHT22;63444;48.148;11.542;2023-12-20T12:12:16;7.10;99.90
45012;DHT22;63444;48.148;11.542;2023-12-20T12:14:42;7.10;99.90
45012;DHT22;63444;48.148;11.542;2023-12-20T12:17:14;7.10;99.90
45012;DHT22;63444;48.148;11.542;2023-12-20T12:19:41;7.10;99.90
45012;DHT22;63444;48.148;11.542;2023-12-20T12:22:10;7.20;99.90
45012;DHT22;63444;48.148;11.542;2023-12-20T12:24:43;7.20;99.90
45012;DHT22;63444;48.148;11.542;2023-12-20T12:27:09;7.30;99.90
45012;DHT22;63444;48.148;11.542;2023-12-20T12:29:36;7.30;99.90
45012;DHT22;63444;48.148;11.542;2023-12-20T12:32:08;7.30;99.90
45012;DHT22;63444;48.148;11.542;2023-12-20T12:34:37;7.30;99.90
45012;DHT22;63444;48.148;11.542;2023-12-20T12:37:06;7.30;99.90
45012;DHT22;63444;48.148;11.542;2023-12-20T12:39:32;7.30;99.90
45012;DHT22;63444;48.148;11.542;2023-12-20T12:41:57;7.30;99.90
45012;DHT22;63444;48.148;11.542;2023-12-20T12:44:23;7.30;99.90
45012;DHT22;63444;48.148;11.542;2023-12-20T12:46:50;7.30;99.90
45012;DHT22;63444;48.148;11.542;2023-12-20T12:49:17;7.30;99.90
45012;DHT22;63444;48.148;11.542;2023-12-20T12:51:43;7.30;99.90
45012;DHT22;63444;48.148;11.542;2023-12-20T12:54:10;7.30;99.90
45012;DHT22;63444;48.148;11.542;2023-12-20T12:56:36;7.40;99.90
45012;DHT22;63444;48.148;11.542;2023-12-20T12:59:02;7.30;99.90
45012;DHT22;63444;48.148;11.542;2023-12-20T13:01:28;7.20;99.90
45012;DHT22;63444;48.148;11.542;2023-12-20T13:03:53;7.10;99.90
45012;DHT22;63444;48.148;11.542;2023-12-20T13:06:19;7.10;99.90
45012;DHT22;63444;48.148;11.542;2023-12-20T13:08:45;7.00;99.90
45012;DHT22;63444;48.148;11.542;2023-12-20T13:11:11;6.90;99.90
45012;DHT22;63444;48.148;11.542;2023-12-20T13:13:37;6.80;99.90
45012;DHT22;63444;48.148;11.542;2023-12-20T13:16:03;6.50;99.90
45012;DHT22;63444;48.148;11.542;2023-12-20T13:18:28;6.50;99.90
45012;DHT22;63444;48.148;11.542;2023-12-20T13:20:54;6.50;99.90
45012;DHT22;63444;48.148;11.542;2023-12-20T13:23:20;6.50;99.90
45012;DHT22;63444;48.148;11.542;2023-12-20T13:25:46;6.30;99.90
45012;DHT22;63444;48.148;11.542;2023-12-20T13:28:12;6.30;99.90
45012;DHT22;63444;48.148;11.542;2023-12-20T13:30:39;6.30;99.90
45012;DHT22;63444;48.148;11.542;2023-12-20T13:33:06;6.20;99.90
45012;DHT22;63444;48.148;11.542;2023-12-20T13:35:32;6.20;99.90
45012;DHT22;63444;48.148;11.542;2023-12-20T13:37:58;6.20;99.90
45012;DHT22;63444;48.148;11.542;2023-12-20T13:40:25;6.10;99.90
45012;DHT22;63444;48.148;11.542;2023-12-20T13:42:50;6.10;99.90
45012;DHT22;63444;48.148;11.542;2023-12-20T13:45:16;5.90;99.90
45012;DHT22;63444;48.148;11.542;2023-12-20T13:47:42;6.10;99.90
45012;DHT22;63444;48.148;11.542;2023-12-20T13:50:07;6.10;99.90
45012;DHT22;63444;48.148;11.542;2023-12-20T13:52:33;6.10;99.90
45012;DHT22;63444;48.148;11.542;2023-12-20T13:54:59;6.20;99.90
45012;DHT22;63444;48.148;11.542;2023-12-20T13:57:24;6.40;99.90
45012;DHT22;63444;48.148;11.542;2023-12-20T13:59:50;6.20;99.90
45012;DHT22;63444;48.148;11.542;2023-12-20T14:02:15;6.20;99.90
45012;DHT22;63444;48.148;11.542;2023-12-20T14:04:44;6.00;99.90
45012;DHT22;63444;48.148;11.542;2023-12-20T14:07:10;6.10;99.90
45012;DHT22;63444;48.148;11.542;2023-12-20T14:09:36;6.10;99.90
45012;DHT22;63444;48.148;11.542;2023-12-20T14:12:02;6.10;99.90
45012;DHT22;63444;48.148;11.542;2023-12-20T14:14:27;6.00;99.90
45012;DHT22;63444;48.148;11.542;2023-12-20T14:16:53;6.10;99.90
45012;DHT22;63444;48.148;11.542;2023-12-20T14:19:19;6.10;99.90
45012;DHT22;63444;48.148;11.542;2023-12-20T14:21:44;6.10;99.90
45012;DHT22;63444;48.148;11.542;2023-12-20T14:24:15;6.10;99.90
45012;DHT22;63444;48.148;11.542;2023-12-20T14:26:41;6.10;99.90
45012;DHT22;63444;48.148;11.542;2023-12-20T14:29:07;6.00;99.90
45012;DHT22;63444;48.148;11.542;2023-12-20T14:31:33;6.00;99.90
45012;DHT22;63444;48.148;11.542;2023-12-20T14:33:59;5.90;99.90
45012;DHT22;63444;48.148;11.542;2023-12-20T14:36:26;5.80;99.90
45012;DHT22;63444;48.148;11.542;2023-12-20T14:38:52;5.90;99.90
45012;DHT22;63444;48.148;11.542;2023-12-20T14:41:18;5.90;99.90
45012;DHT22;63444;48.148;11.542;2023-12-20T14:43:44;5.80;99.90
45012;DHT22;63444;48.148;11.542;2023-12-20T14:46:10;5.90;99.90
45012;DHT22;63444;48.148;11.542;2023-12-20T14:48:36;5.90;99.90
45012;DHT22;63444;48.148;11.542;2023-12-20T14:51:01;5.90;99.90
45012;DHT22;63444;48.148;11.542;2023-12-20T14:53:27;5.90;99.90
45012;DHT22;63444;48.148;11.542;2023-12-20T14:55:53;5.90;99.90
45012;DHT22;63444;48.148;11.542;2023-12-20T14:58:18;5.80;99.90
45012;DHT22;63444;48.148;11.542;2023-12-20T15:00:44;5.90;99.90
45012;DHT22;63444;48.148;11.542;2023-12-20T15:03:10;5.90;99.90
45012;DHT22;63444;48.148;11.542;2023-12-20T15:05:36;5.90;99.90
45012;DHT22;63444;48.148;11.542;2023-12-20T15:08:02;5.90;99.90
45012;DHT22;63444;48.148;11.542;2023-12-20T15:10:28;6.00;99.90
45012;DHT22;63444;48.148;11.542;2023-12-20T15:12:53;5.90;99.90
45012;DHT22;63444;48.148;11.542;2023-12-20T15:15:20;5.80;99.90
45012;DHT22;63444;48.148;11.542;2023-12-20T15:17:47;5.80;99.90
45012;DHT22;63444;48.148;11.542;2023-12-20T15:20:12;5.80;99.90
45012;DHT22;63444;48.148;11.542;2023-12-20T15:22:39;5.80;99.90
45012;DHT22;63444;48.148;11.542;2023-12-20T15:25:06;5.80;99.90